sensor_id;sensor_type;location;lat;lon;timestamp;temperature;humidity
23579;DHT22;11967;50.852;4.400;2022-08-25T00:01:35;28.30;99.90
23579;DHT22;11967;50.852;4.400;2022-08-25T00:04:04;28.30;99.90
23579;DHT22;11967;50.852;4.400;2022-08-25T00:06:30;28.30;99.90
23579;DHT22;11967;50.852;4.400;2022-08-25T00:08:57;28.20;99.90
23579;DHT22;11967;50.852;4.400;2022-08-25T00:11:25;28.20;99.90
23579;DHT22;11967;50.852;4.400;2022-08-25T00:13:56;28.20;99.90
23579;DHT22;11967;50.852;4.400;2022-08-25T00:16:23;28.20;99.90
23579;DHT22;11967;50.852;4.400;2022-08-25T00:18:55;28.20;99.90
23579;DHT22;11967;50.852;4.400;2022-08-25T00:21:21;28.20;99.90
23579;DHT22;11967;50.852;4.400;2022-08-25T00:23:47;28.10;99.90
23579;DHT22;11967;50.852;4.400;2022-08-25T00:26:14;28.00;99.90
23579;DHT22;11967;50.852;4.400;2022-08-25T00:28:40;28.00;99.90
23579;DHT22;11967;50.852;4.400;2022-08-25T00:31:10;27.90;99.90
23579;DHT22;11967;50.852;4.400;2022-08-25T00:33:37;27.90;99.90
23579;DHT22;11967;50.852;4.400;2022-08-25T00:36:03;27.90;99.90
23579;DHT22;11967;50.852;4.400;2022-08-25T00:38:29;27.90;99.90
23579;DHT22;11967;50.852;4.400;2022-08-25T00:40:54;27.90;99.90
23579;DHT22;11967;50.852;4.400;2022-08-25T00:43:43;27.80;99.90
23579;DHT22;11967;50.852;4.400;2022-08-25T00:46:12;27.80;99.90
23579;DHT22;11967;50.852;4.400;2022-08-25T00:48:38;27.80;99.90
23579;DHT22;11967;50.852;4.400;2022-08-25T00:51:07;27.70;99.90
23579;DHT22;11967;50.852;4.400;2022-08-25T00:53:34;27.70;99.90
23579;DHT22;11967;50.852;4.400;2022-08-25T00:56:00;27.80;99.90
23579;DHT22;11967;50.852;4.400;2022-08-25T00:58:27;27.80;99.90
23579;DHT22;11967;50.852;4.400;2022-08-25T01:00:56;27.80;99.90
23579;DHT22;11967;50.852;4.400;2022-08-25T01:03:30;27.70;99.90
23579;DHT22;11967;50.852;4.400;2022-08-25T01:06:00;27.70;99.90
23579;DHT22;11967;50.852;4.400;2022-08-25T01:08:27;27.70;99.90
23579;DHT22;11967;50.852;4.400;2022-08-25T01:10:54;27.70;99.90
23579;DHT22;11967;50.852;4.400;2022-08-25T01:13:32;27.70;99.90
23579;DHT22;11967;50.852;4.400;2022-08-25T01:15:59;27.70;99.90
23579;DHT22;11967;50.852;4.400;2022-08-25T01:18:26;27.70;99.90
23579;DHT22;11967;50.852;4.400;2022-08-25T01:20:56;27.70;99.90
23579;DHT22;11967;50.852;4.400;2022-08-25T01:23:23;27.70;99.90
23579;DHT22;11967;50.852;4.400;2022-08-25T01:26:03;27.70;99.90
23579;DHT22;11967;50.852;4.400;2022-08-25T01:28:29;27.70;99.90
23579;DHT22;11967;50.852;4.400;2022-08-25T01:30:55;27.70;99.90
23579;DHT22;11967;50.852;4.400;2022-08-25T01:33:21;27.70;99.90
23579;DHT22;11967;50.852;4.400;2022-08-25T01:35:49;27.70;99.90
23579;DHT22;11967;50.852;4.400;2022-08-25T01:38:15;27.70;99.90
23579;DHT22;11967;50.852;4.400;2022-08-25T01:40:41;27.70;99.90
23579;DHT22;11967;50.852;4.400;2022-08-25T01:43:24;27.60;99.90
23579;DHT22;11967;50.852;4.400;2022-08-25T01:45:51;27.70;99.90
23579;DHT22;11967;50.852;4.400;2022-08-25T01:48:17;27.60;99.90
23579;DHT22;11967;50.852;4.400;2022-08-25T01:50:43;27.60;99.90
23579;DHT22;11967;50.852;4.400;2022-08-25T01:53:23;27.60;99.90
23579;DHT22;11967;50.852;4.400;2022-08-25T01:55:50;27.60;99.90
23579;DHT22;11967;50.852;4.400;2022-08-25T01:58:20;27.60;99.90
23579;DHT22;11967;50.852;4.400;2022-08-25T02:00:48;27.60;99.90
23579;DHT22;11967;50.852;4.400;2022-08-25T02:03:15;27.50;99.90
23579;DHT22;11967;50.852;4.400;2022-08-25T02:05:42;27.50;99.90
23579;DHT22;11967;50.852;4.400;2022-08-25T02:08:08;27.60;99.90
23579;DHT22;11967;50.852;4.400;2022-08-25T02:10:34;27.50;99.90
23579;DHT22;11967;50.852;4.400;2022-08-25T02:13:00;27.60;99.90
23579;DHT22;11967;50.852;4.400;2022-08-25T02:15:25;27.50;99.90
23579;DHT22;11967;50.852;4.400;2022-08-25T02:17:51;27.50;99.90
23579;DHT22;11967;50.852;4.400;2022-08-25T02:20:17;27.40;99.90
23579;DHT22;11967;50.852;4.400;2022-08-25T02:22:43;27.40;99.90
23579;DHT22;11967;50.852;4.400;2022-08-25T02:25:09;27.40;99.90
23579;DHT22;11967;50.852;4.400;2022-08-25T02:27:35;27.30;99.90
23579;DHT22;11967;50.852;4.400;2022-08-25T02:30:01;27.30;99.90
23579;DHT22;11967;50.852;4.400;2022-08-25T02:32:27;27.30;99.90
23579;DHT22;11967;50.852;4.400;2022-08-25T02:34:52;27.30;99.90
23579;DHT22;11967;50.852;4.400;2022-08-25T02:37:18;27.30;99.90
23579;DHT22;11967;50.852;4.400;2022-08-25T02:39:48;27.20;99.90
23579;DHT22;11967;50.852;4.400;2022-08-25T02:42:14;27.20;99.90
23579;DHT22;11967;50.852;4.400;2022-08-25T02:44:40;27.10;99.90
23579;DHT22;11967;50.852;4.400;2022-08-25T02:47:05;27.10;99.90
23579;DHT22;11967;50.852;4.400;2022-08-25T02:49:31;27.00;99.90
23579;DHT22;11967;50.852;4.400;2022-08-25T02:51:57;26.90;99.90
23579;DHT22;11967;50.852;4.400;2022-08-25T02:54:25;26.90;99.90
23579;DHT22;11967;50.852;4.400;2022-08-25T02:56:51;26.90;99.90
23579;DHT22;11967;50.852;4.400;2022-08-25T02:59:17;26.80;99.90
23579;DHT22;11967;50.852;4.400;2022-08-25T03:01:43;26.80;99.90
23579;DHT22;11967;50.852;4.400;2022-08-25T03:04:09;26.80;99.90
23579;DHT22;11967;50.852;4.400;2022-08-25T03:06:35;26.80;99.90
23579;DHT22;11967;50.852;4.400;2022-08-25T03:09:00;26.80;99.90
23579;DHT22;11967;50.852;4.400;2022-08-25T03:11:26;26.80;99.90
23579;DHT22;11967;50.852;4.400;2022-08-25T03:13:53;26.70;99.90
23579;DHT22;11967;50.852;4.400;2022-08-25T03:16:20;26.80;99.90
23579;DHT22;11967;50.852;4.400;2022-08-25T03:18:46;26.70;99.90
23579;DHT22;11967;50.852;4.400;2022-08-25T03:21:13;26.70;99.90
23579;DHT22;11967;50.852;4.400;2022-08-25T03:23:40;26.60;99.90
23579;DHT22;11967;50.852;4.400;2022-08-25T03:26:06;26.60;99.90
23579;DHT22;11967;50.852;4.400;2022-08-25T03:28:51;26.50;99.90
23579;DHT22;11967;50.852;4.400;2022-08-25T03:31:17;26.40;99.90
23579;DHT22;11967;50.852;4.400;2022-08-25T03:33:43;26.40;99.90
23579;DHT22;11967;50.852;4.400;2022-08-25T03:36:09;26.40;99.90
23579;DHT22;11967;50.852;4.400;2022-08-25T03:38:37;26.50;99.90
23579;DHT22;11967;50.852;4.400;2022-08-25T03:41:15;26.50;99.90
23579;DHT22;11967;50.852;4.400;2022-08-25T03:43:42;26.30;99.90
23579;DHT22;11967;50.852;4.400;2022-08-25T03:46:08;26.30;99.90
23579;DHT22;11967;50.852;4.400;2022-08-25T03:48:34;26.20;99.90
23579;DHT22;11967;50.852;4.400;2022-08-25T03:51:00;26.30;99.90
23579;DHT22;11967;50.852;4.400;2022-08-25T03:53:25;26.20;99.90
23579;DHT22;11967;50.852;4.400;2022-08-25T03:55:51;26.30;99.90
23579;DHT22;11967;50.852;4.400;2022-08-25T03:58:16;26.20;99.90
23579;DHT22;11967;50.852;4.400;2022-08-25T04:00:43;26.20;99.90
23579;DHT22;11967;50.852;4.400;2022-08-25T04:03:09;26.20;99.90
23579;DHT22;11967;50.852;4.400;2022-08-25T04:05:34;26.20;99.90
23579;DHT22;11967;50.852;4.400;2022-08-25T04:08:00;26.20;99.90
23579;DHT22;11967;50.852;4.400;2022-08-25T04:10:26;26.20;99.90
23579;DHT22;11967;50.852;4.400;2022-08-25T04:12:52;26.30;99.90
23579;DHT22;11967;50.852;4.400;2022-08-25T04:15:17;26.20;99.90
23579;DHT22;11967;50.852;4.400;2022-08-25T04:17:43;26.30;99.90
23579;DHT22;11967;50.852;4.400;2022-08-25T04:20:10;26.40;99.90
23579;DHT22;11967;50.852;4.400;2022-08-25T04:22:36;26.40;99.90
23579;DHT22;11967;50.852;4.400;2022-08-25T04:25:04;26.30;99.90
23579;DHT22;11967;50.852;4.400;2022-08-25T04:27:29;26.30;99.90
23579;DHT22;11967;50.852;4.400;2022-08-25T04:29:55;26.30;99.90
23579;DHT22;11967;50.852;4.400;2022-08-25T04:32:28;26.20;99.90
23579;DHT22;11967;50.852;4.400;2022-08-25T04:34:54;26.10;99.90
23579;DHT22;11967;50.852;4.400;2022-08-25T04:37:19;26.10;99.90
23579;DHT22;11967;50.852;4.400;2022-08-25T04:39:45;26.10;99.90
23579;DHT22;11967;50.852;4.400;2022-08-25T04:42:11;26.00;99.90
23579;DHT22;11967;50.852;4.400;2022-08-25T04:44:36;26.00;99.90
23579;DHT22;11967;50.852;4.400;2022-08-25T04:47:02;26.00;99.90
23579;DHT22;11967;50.852;4.400;2022-08-25T04:49:28;26.00;99.90
23579;DHT22;11967;50.852;4.400;2022-08-25T04:51:54;26.00;99.90
23579;DHT22;11967;50.852;4.400;2022-08-25T04:54:21;26.00;99.90
23579;DHT22;11967;50.852;4.400;2022-08-25T04:56:49;25.90;99.90
23579;DHT22;11967;50.852;4.400;2022-08-25T04:59:16;25.90;99.90
23579;DHT22;11967;50.852;4.400;2022-08-25T05:01:43;25.90;99.90
23579;DHT22;11967;50.852;4.400;2022-08-25T05:04:20;26.00;99.90
23579;DHT22;11967;50.852;4.400;2022-08-25T05:06:45;26.00;99.90
23579;DHT22;11967;50.852;4.400;2022-08-25T05:09:11;25.90;99.90
23579;DHT22;11967;50.852;4.400;2022-08-25T05:11:37;26.00;99.90
23579;DHT22;11967;50.852;4.400;2022-08-25T05:14:03;26.00;99.90
23579;DHT22;11967;50.852;4.400;2022-08-25T05:16:29;26.00;99.80
23579;DHT22;11967;50.852;4.400;2022-08-25T05:18:56;26.00;99.60
23579;DHT22;11967;50.852;4.400;2022-08-25T05:21:24;26.10;99.40
23579;DHT22;11967;50.852;4.400;2022-08-25T05:23:56;26.00;99.20
23579;DHT22;11967;50.852;4.400;2022-08-25T05:26:24;26.10;99.10
23579;DHT22;11967;50.852;4.400;2022-08-25T05:28:52;26.10;98.70
23579;DHT22;11967;50.852;4.400;2022-08-25T05:31:18;26.10;98.40
23579;DHT22;11967;50.852;4.400;2022-08-25T05:33:44;26.10;98.30
23579;DHT22;11967;50.852;4.400;2022-08-25T05:36:11;26.10;98.10
23579;DHT22;11967;50.852;4.400;2022-08-25T05:38:38;26.10;98.10
23579;DHT22;11967;50.852;4.400;2022-08-25T05:41:07;26.10;97.90
23579;DHT22;11967;50.852;4.400;2022-08-25T05:43:36;26.20;98.10
23579;DHT22;11967;50.852;4.400;2022-08-25T05:46:02;26.20;97.70
23579;DHT22;11967;50.852;4.400;2022-08-25T05:48:28;26.20;97.60
23579;DHT22;11967;50.852;4.400;2022-08-25T05:50:56;26.20;97.40
23579;DHT22;11967;50.852;4.400;2022-08-25T05:53:23;26.30;97.50
23579;DHT22;11967;50.852;4.400;2022-08-25T05:55:56;26.30;97.10
23579;DHT22;11967;50.852;4.400;2022-08-25T05:58:25;26.30;97.00
23579;DHT22;11967;50.852;4.400;2022-08-25T06:00:55;26.40;96.90
23579;DHT22;11967;50.852;4.400;2022-08-25T06:03:21;26.40;96.50
23579;DHT22;11967;50.852;4.400;2022-08-25T06:05:47;26.40;96.40
23579;DHT22;11967;50.852;4.400;2022-08-25T06:08:13;26.50;96.10
23579;DHT22;11967;50.852;4.400;2022-08-25T06:10:40;26.50;96.00
23579;DHT22;11967;50.852;4.400;2022-08-25T06:13:06;26.60;95.80
23579;DHT22;11967;50.852;4.400;2022-08-25T06:15:31;26.70;95.60
23579;DHT22;11967;50.852;4.400;2022-08-25T06:17:58;26.70;95.50
23579;DHT22;11967;50.852;4.400;2022-08-25T06:20:27;26.70;95.40
23579;DHT22;11967;50.852;4.400;2022-08-25T06:22:53;26.70;95.30
23579;DHT22;11967;50.852;4.400;2022-08-25T06:25:22;26.70;95.10
23579;DHT22;11967;50.852;4.400;2022-08-25T06:27:48;26.70;95.00
23579;DHT22;11967;50.852;4.400;2022-08-25T06:30:17;26.70;95.20
23579;DHT22;11967;50.852;4.400;2022-08-25T06:32:44;26.70;95.10
23579;DHT22;11967;50.852;4.400;2022-08-25T06:35:13;26.70;95.10
23579;DHT22;11967;50.852;4.400;2022-08-25T06:37:38;26.70;95.10
23579;DHT22;11967;50.852;4.400;2022-08-25T06:40:07;26.70;94.90
23579;DHT22;11967;50.852;4.400;2022-08-25T06:42:33;26.80;94.80
23579;DHT22;11967;50.852;4.400;2022-08-25T06:44:59;26.80;94.60
23579;DHT22;11967;50.852;4.400;2022-08-25T06:47:25;26.80;94.40
23579;DHT22;11967;50.852;4.400;2022-08-25T06:49:51;26.90;94.30
23579;DHT22;11967;50.852;4.400;2022-08-25T06:52:16;26.90;94.30
23579;DHT22;11967;50.852;4.400;2022-08-25T06:54:42;27.00;94.20
23579;DHT22;11967;50.852;4.400;2022-08-25T06:57:08;27.00;94.00
23579;DHT22;11967;50.852;4.400;2022-08-25T06:59:35;27.10;94.30
23579;DHT22;11967;50.852;4.400;2022-08-25T07:02:03;27.10;94.30
23579;DHT22;11967;50.852;4.400;2022-08-25T07:04:29;27.00;94.30
23579;DHT22;11967;50.852;4.400;2022-08-25T07:06:57;27.10;94.00
23579;DHT22;11967;50.852;4.400;2022-08-25T07:09:23;27.10;93.90
23579;DHT22;11967;50.852;4.400;2022-08-25T07:11:49;27.10;94.10
23579;DHT22;11967;50.852;4.400;2022-08-25T07:14:22;27.10;94.20
23579;DHT22;11967;50.852;4.400;2022-08-25T07:16:47;27.10;93.90
23579;DHT22;11967;50.852;4.400;2022-08-25T07:19:13;27.10;93.90
23579;DHT22;11967;50.852;4.400;2022-08-25T07:21:41;27.20;93.90
23579;DHT22;11967;50.852;4.400;2022-08-25T07:24:11;27.20;93.90
23579;DHT22;11967;50.852;4.400;2022-08-25T07:26:39;27.20;93.50
23579;DHT22;11967;50.852;4.400;2022-08-25T07:29:09;27.20;93.40
23579;DHT22;11967;50.852;4.400;2022-08-25T07:31:35;27.30;93.50
23579;DHT22;11967;50.852;4.400;2022-08-25T07:34:01;27.30;92.90
23579;DHT22;11967;50.852;4.400;2022-08-25T07:36:45;27.30;92.90
23579;DHT22;11967;50.852;4.400;2022-08-25T07:39:11;27.30;93.00
23579;DHT22;11967;50.852;4.400;2022-08-25T07:41:38;27.40;93.00
23579;DHT22;11967;50.852;4.400;2022-08-25T07:44:05;27.40;93.20
23579;DHT22;11967;50.852;4.400;2022-08-25T07:46:32;27.40;93.00
23579;DHT22;11967;50.852;4.400;2022-08-25T07:48:58;27.40;93.10
23579;DHT22;11967;50.852;4.400;2022-08-25T07:51:24;27.40;93.10
23579;DHT22;11967;50.852;4.400;2022-08-25T07:53:50;27.40;93.00
23579;DHT22;11967;50.852;4.400;2022-08-25T07:56:16;27.50;93.10
23579;DHT22;11967;50.852;4.400;2022-08-25T07:58:44;27.50;93.30
23579;DHT22;11967;50.852;4.400;2022-08-25T08:01:20;27.60;93.40
23579;DHT22;11967;50.852;4.400;2022-08-25T08:03:46;27.60;93.50
23579;DHT22;11967;50.852;4.400;2022-08-25T08:06:14;27.60;93.60
23579;DHT22;11967;50.852;4.400;2022-08-25T08:08:42;27.60;93.60
23579;DHT22;11967;50.852;4.400;2022-08-25T08:11:19;27.60;93.40
23579;DHT22;11967;50.852;4.400;2022-08-25T08:13:47;27.60;93.10
23579;DHT22;11967;50.852;4.400;2022-08-25T08:16:15;27.70;93.20
23579;DHT22;11967;50.852;4.400;2022-08-25T08:18:41;27.70;93.40
23579;DHT22;11967;50.852;4.400;2022-08-25T08:21:15;27.80;93.30
23579;DHT22;11967;50.852;4.400;2022-08-25T08:23:41;27.90;93.40
23579;DHT22;11967;50.852;4.400;2022-08-25T08:26:06;27.90;93.60
23579;DHT22;11967;50.852;4.400;2022-08-25T08:28:32;27.90;93.50
23579;DHT22;11967;50.852;4.400;2022-08-25T08:30:58;28.00;93.50
23579;DHT22;11967;50.852;4.400;2022-08-25T08:33:24;28.00;93.50
23579;DHT22;11967;50.852;4.400;2022-08-25T08:36:04;28.00;93.80
23579;DHT22;11967;50.852;4.400;2022-08-25T08:38:34;28.00;93.70
23579;DHT22;11967;50.852;4.400;2022-08-25T08:41:43;28.00;93.60
23579;DHT22;11967;50.852;4.400;2022-08-25T08:52:53;28.10;92.30
23579;DHT22;11967;50.852;4.400;2022-08-25T08:55:39;28.10;92.70
23579;DHT22;11967;50.852;4.400;2022-08-25T08:58:16;28.10;92.50
23579;DHT22;11967;50.852;4.400;2022-08-25T09:00:52;28.20;92.60
23579;DHT22;11967;50.852;4.400;2022-08-25T09:06:02;28.20;92.80
23579;DHT22;11967;50.852;4.400;2022-08-25T09:08:28;28.30;92.50
23579;DHT22;11967;50.852;4.400;2022-08-25T09:27:29;28.50;91.30
23579;DHT22;11967;50.852;4.400;2022-08-25T09:30:06;28.60;91.00
23579;DHT22;11967;50.852;4.400;2022-08-25T09:32:49;28.70;90.80
23579;DHT22;11967;50.852;4.400;2022-08-25T09:35:19;28.80;90.70
23579;DHT22;11967;50.852;4.400;2022-08-25T09:40:29;28.80;90.00
23579;DHT22;11967;50.852;4.400;2022-08-25T09:42:58;28.90;90.10
23579;DHT22;11967;50.852;4.400;2022-08-25T09:45:42;28.90;89.60
23579;DHT22;11967;50.852;4.400;2022-08-25T09:48:21;29.00;89.40
23579;DHT22;11967;50.852;4.400;2022-08-25T09:50:52;29.10;87.40
23579;DHT22;11967;50.852;4.400;2022-08-25T09:53:19;29.30;87.10
23579;DHT22;11967;50.852;4.400;2022-08-25T09:55:52;29.30;87.30
23579;DHT22;11967;50.852;4.400;2022-08-25T09:58:22;29.40;85.10
23579;DHT22;11967;50.852;4.400;2022-08-25T10:01:02;29.40;84.20
23579;DHT22;11967;50.852;4.400;2022-08-25T10:03:29;29.50;83.70
23579;DHT22;11967;50.852;4.400;2022-08-25T10:11:11;29.80;82.70
23579;DHT22;11967;50.852;4.400;2022-08-25T10:13:48;29.80;82.70
23579;DHT22;11967;50.852;4.400;2022-08-25T10:16:25;29.90;82.20
23579;DHT22;11967;50.852;4.400;2022-08-25T10:19:13;30.00;81.80
23579;DHT22;11967;50.852;4.400;2022-08-25T10:21:41;30.10;80.90
23579;DHT22;11967;50.852;4.400;2022-08-25T10:24:10;30.20;80.00
23579;DHT22;11967;50.852;4.400;2022-08-25T10:26:53;30.20;79.80
23579;DHT22;11967;50.852;4.400;2022-08-25T10:35:17;30.50;78.70
23579;DHT22;11967;50.852;4.400;2022-08-25T10:40:50;30.70;76.60
23579;DHT22;11967;50.852;4.400;2022-08-25T10:43:35;30.60;75.70
23579;DHT22;11967;50.852;4.400;2022-08-25T10:46:22;30.70;75.10
23579;DHT22;11967;50.852;4.400;2022-08-25T11:05:29;31.20;69.70
23579;DHT22;11967;50.852;4.400;2022-08-25T11:08:03;31.30;69.10
23579;DHT22;11967;50.852;4.400;2022-08-25T11:13:06;31.30;67.50
23579;DHT22;11967;50.852;4.400;2022-08-25T11:15:39;31.30;68.10
23579;DHT22;11967;50.852;4.400;2022-08-25T11:18:08;31.40;67.90
23579;DHT22;11967;50.852;4.400;2022-08-25T11:20:41;31.40;68.20
23579;DHT22;11967;50.852;4.400;2022-08-25T11:25:46;31.60;67.10
23579;DHT22;11967;50.852;4.400;2022-08-25T11:31:16;31.70;66.50
23579;DHT22;11967;50.852;4.400;2022-08-25T11:33:43;31.70;66.50
23579;DHT22;11967;50.852;4.400;2022-08-25T11:36:22;31.70;66.30
23579;DHT22;11967;50.852;4.400;2022-08-25T11:42:08;31.80;66.20
23579;DHT22;11967;50.852;4.400;2022-08-25T11:45:00;31.70;65.80
23579;DHT22;11967;50.852;4.400;2022-08-25T11:50:08;31.80;66.30
23579;DHT22;11967;50.852;4.400;2022-08-25T11:52:51;31.80;66.00
23579;DHT22;11967;50.852;4.400;2022-08-25T11:55:44;31.90;66.10
23579;DHT22;11967;50.852;4.400;2022-08-25T11:58:15;31.90;65.50
23579;DHT22;11967;50.852;4.400;2022-08-25T12:00:47;31.90;65.90
23579;DHT22;11967;50.852;4.400;2022-08-25T12:06:34;32.10;65.60
23579;DHT22;11967;50.852;4.400;2022-08-25T12:27:32;32.20;65.00
23579;DHT22;11967;50.852;4.400;2022-08-25T12:43:31;32.30;64.20
23579;DHT22;11967;50.852;4.400;2022-08-25T12:54:15;32.40;64.00
23579;DHT22;11967;50.852;4.400;2022-08-25T12:56:46;32.60;63.90
23579;DHT22;11967;50.852;4.400;2022-08-25T12:59:19;32.60;64.00
23579;DHT22;11967;50.852;4.400;2022-08-25T13:15:44;32.70;62.80
23579;DHT22;11967;50.852;4.400;2022-08-25T13:18:24;32.80;62.50
23579;DHT22;11967;50.852;4.400;2022-08-25T13:21:14;32.70;62.90
23579;DHT22;11967;50.852;4.400;2022-08-25T13:23:46;32.70;62.50
23579;DHT22;11967;50.852;4.400;2022-08-25T13:26:16;32.60;62.20
23579;DHT22;11967;50.852;4.400;2022-08-25T13:29:00;32.60;62.60
23579;DHT22;11967;50.852;4.400;2022-08-25T13:31:27;32.60;62.70
23579;DHT22;11967;50.852;4.400;2022-08-25T13:33:56;32.60;62.60
23579;DHT22;11967;50.852;4.400;2022-08-25T13:36:25;32.60;62.60
23579;DHT22;11967;50.852;4.400;2022-08-25T13:39:17;32.60;62.60
23579;DHT22;11967;50.852;4.400;2022-08-25T13:41:46;32.50;62.10
23579;DHT22;11967;50.852;4.400;2022-08-25T13:44:13;32.40;61.60
23579;DHT22;11967;50.852;4.400;2022-08-25T13:46:39;32.40;61.80
23579;DHT22;11967;50.852;4.400;2022-08-25T13:49:08;32.40;61.90
23579;DHT22;11967;50.852;4.400;2022-08-25T13:51:34;32.30;61.80
23579;DHT22;11967;50.852;4.400;2022-08-25T13:54:06;32.20;62.00
23579;DHT22;11967;50.852;4.400;2022-08-25T13:56:37;32.30;61.90
23579;DHT22;11967;50.852;4.400;2022-08-25T13:59:09;32.20;61.60
23579;DHT22;11967;50.852;4.400;2022-08-25T14:01:45;32.20;61.50
23579;DHT22;11967;50.852;4.400;2022-08-25T14:04:29;32.20;61.70
23579;DHT22;11967;50.852;4.400;2022-08-25T14:07:25;32.10;61.60
23579;DHT22;11967;50.852;4.400;2022-08-25T14:09:55;32.10;61.70
23579;DHT22;11967;50.852;4.400;2022-08-25T14:12:32;32.10;61.70
23579;DHT22;11967;50.852;4.400;2022-08-25T14:17:43;31.90;73.80
23579;DHT22;11967;50.852;4.400;2022-08-25T14:20:30;31.80;76.90
23579;DHT22;11967;50.852;4.400;2022-08-25T14:23:04;31.70;78.60
23579;DHT22;11967;50.852;4.400;2022-08-25T14:25:31;31.60;79.20
23579;DHT22;11967;50.852;4.400;2022-08-25T14:28:05;31.60;80.10
23579;DHT22;11967;50.852;4.400;2022-08-25T14:30:34;31.60;80.80
23579;DHT22;11967;50.852;4.400;2022-08-25T14:33:01;31.60;80.70
23579;DHT22;11967;50.852;4.400;2022-08-25T14:35:28;31.80;81.00
23579;DHT22;11967;50.852;4.400;2022-08-25T14:37:55;31.80;80.50
23579;DHT22;11967;50.852;4.400;2022-08-25T14:40:21;31.90;80.30
23579;DHT22;11967;50.852;4.400;2022-08-25T14:42:47;31.90;80.80
23579;DHT22;11967;50.852;4.400;2022-08-25T14:45:14;31.80;78.50
23579;DHT22;11967;50.852;4.400;2022-08-25T14:47:42;31.80;78.00
23579;DHT22;11967;50.852;4.400;2022-08-25T14:50:09;31.80;77.80
23579;DHT22;11967;50.852;4.400;2022-08-25T14:52:35;31.80;77.80
23579;DHT22;11967;50.852;4.400;2022-08-25T14:55:01;31.80;77.90
23579;DHT22;11967;50.852;4.400;2022-08-25T14:57:27;31.80;77.80
23579;DHT22;11967;50.852;4.400;2022-08-25T14:59:53;31.80;77.80
23579;DHT22;11967;50.852;4.400;2022-08-25T15:02:21;31.80;77.40
23579;DHT22;11967;50.852;4.400;2022-08-25T15:04:56;31.80;76.80
23579;DHT22;11967;50.852;4.400;2022-08-25T15:07:23;31.80;76.20
23579;DHT22;11967;50.852;4.400;2022-08-25T15:10:08;31.80;76.40
23579;DHT22;11967;50.852;4.400;2022-08-25T15:12:34;31.90;76.30
23579;DHT22;11967;50.852;4.400;2022-08-25T15:15:00;32.00;76.40
23579;DHT22;11967;50.852;4.400;2022-08-25T15:17:28;31.90;76.40
23579;DHT22;11967;50.852;4.400;2022-08-25T15:19:54;31.90;78.90
23579;DHT22;11967;50.852;4.400;2022-08-25T15:22:20;31.80;81.10
23579;DHT22;11967;50.852;4.400;2022-08-25T15:24:46;31.80;82.20
23579;DHT22;11967;50.852;4.400;2022-08-25T15:27:12;31.70;83.60
23579;DHT22;11967;50.852;4.400;2022-08-25T15:29:39;31.70;85.30
23579;DHT22;11967;50.852;4.400;2022-08-25T15:32:07;31.60;86.30
23579;DHT22;11967;50.852;4.400;2022-08-25T15:34:33;31.60;87.20
23579;DHT22;11967;50.852;4.400;2022-08-25T15:37:11;31.60;89.00
23579;DHT22;11967;50.852;4.400;2022-08-25T15:39:39;31.40;90.50
23579;DHT22;11967;50.852;4.400;2022-08-25T15:42:08;31.30;91.20
23579;DHT22;11967;50.852;4.400;2022-08-25T15:44:33;31.30;92.00
23579;DHT22;11967;50.852;4.400;2022-08-25T15:46:59;31.20;92.60
23579;DHT22;11967;50.852;4.400;2022-08-25T15:49:26;31.20;93.10
23579;DHT22;11967;50.852;4.400;2022-08-25T15:51:53;31.30;93.40
23579;DHT22;11967;50.852;4.400;2022-08-25T15:54:19;31.20;93.40
23579;DHT22;11967;50.852;4.400;2022-08-25T15:56:45;31.20;93.30
23579;DHT22;11967;50.852;4.400;2022-08-25T15:59:12;31.10;93.80
23579;DHT22;11967;50.852;4.400;2022-08-25T16:01:38;31.10;93.50
23579;DHT22;11967;50.852;4.400;2022-08-25T16:04:04;31.00;93.80
23579;DHT22;11967;50.852;4.400;2022-08-25T16:06:29;31.00;94.30
23579;DHT22;11967;50.852;4.400;2022-08-25T16:08:55;30.80;94.70
23579;DHT22;11967;50.852;4.400;2022-08-25T16:11:24;30.80;95.50
23579;DHT22;11967;50.852;4.400;2022-08-25T16:13:50;30.60;96.20
23579;DHT22;11967;50.852;4.400;2022-08-25T16:16:18;30.50;97.10
23579;DHT22;11967;50.852;4.400;2022-08-25T16:18:44;30.50;97.50
23579;DHT22;11967;50.852;4.400;2022-08-25T16:21:13;30.50;97.60
23579;DHT22;11967;50.852;4.400;2022-08-25T16:23:40;30.40;98.10
23579;DHT22;11967;50.852;4.400;2022-08-25T16:26:08;30.30;99.00
23579;DHT22;11967;50.852;4.400;2022-08-25T16:28:39;30.40;99.80
23579;DHT22;11967;50.852;4.400;2022-08-25T16:31:08;30.40;99.90
23579;DHT22;11967;50.852;4.400;2022-08-25T16:33:34;30.40;99.90
23579;DHT22;11967;50.852;4.400;2022-08-25T16:36:10;30.40;99.90
23579;DHT22;11967;50.852;4.400;2022-08-25T16:38:37;30.40;99.90
23579;DHT22;11967;50.852;4.400;2022-08-25T16:41:06;30.30;99.90
23579;DHT22;11967;50.852;4.400;2022-08-25T16:43:33;30.40;99.90
23579;DHT22;11967;50.852;4.400;2022-08-25T16:46:05;30.30;99.90
23579;DHT22;11967;50.852;4.400;2022-08-25T16:48:32;30.30;99.90
23579;DHT22;11967;50.852;4.400;2022-08-25T16:50:57;30.30;99.90
23579;DHT22;11967;50.852;4.400;2022-08-25T16:53:23;30.40;99.90
23579;DHT22;11967;50.852;4.400;2022-08-25T16:56:23;30.20;99.90
23579;DHT22;11967;50.852;4.400;2022-08-25T16:58:51;30.10;99.90
23579;DHT22;11967;50.852;4.400;2022-08-25T17:01:18;30.10;99.90
23579;DHT22;11967;50.852;4.400;2022-08-25T17:03:44;30.00;99.90
23579;DHT22;11967;50.852;4.400;2022-08-25T17:06:10;30.00;99.90
23579;DHT22;11967;50.852;4.400;2022-08-25T17:08:38;29.80;99.90
23579;DHT22;11967;50.852;4.400;2022-08-25T17:11:13;29.70;99.90
23579;DHT22;11967;50.852;4.400;2022-08-25T17:13:42;29.70;99.90
23579;DHT22;11967;50.852;4.400;2022-08-25T17:16:08;29.60;99.90
23579;DHT22;11967;50.852;4.400;2022-08-25T17:18:34;29.60;99.90
23579;DHT22;11967;50.852;4.400;2022-08-25T17:21:03;29.50;99.90
23579;DHT22;11967;50.852;4.400;2022-08-25T17:23:29;29.60;99.90
23579;DHT22;11967;50.852;4.400;2022-08-25T17:25:56;29.60;99.90
23579;DHT22;11967;50.852;4.400;2022-08-25T17:28:22;29.50;99.90
23579;DHT22;11967;50.852;4.400;2022-08-25T17:30:49;29.50;99.90
23579;DHT22;11967;50.852;4.400;2022-08-25T17:33:16;29.40;99.90
23579;DHT22;11967;50.852;4.400;2022-08-25T17:35:45;29.40;99.90
23579;DHT22;11967;50.852;4.400;2022-08-25T17:38:13;29.40;99.90
23579;DHT22;11967;50.852;4.400;2022-08-25T17:40:40;29.40;99.90
23579;DHT22;11967;50.852;4.400;2022-08-25T17:43:05;29.50;99.90
23579;DHT22;11967;50.852;4.400;2022-08-25T17:45:32;29.50;99.90
23579;DHT22;11967;50.852;4.400;2022-08-25T17:47:57;29.40;99.90
23579;DHT22;11967;50.852;4.400;2022-08-25T17:50:24;29.40;99.90
23579;DHT22;11967;50.852;4.400;2022-08-25T17:52:50;29.40;99.90
23579;DHT22;11967;50.852;4.400;2022-08-25T17:55:16;29.40;99.90
23579;DHT22;11967;50.852;4.400;2022-08-25T17:57:46;29.30;99.90